Time;durP1;ratioP1;P1;durP2;ratioP2;P2;SDS_P1;SDS_P2;PMS_P1;PMS_P2;Temp;Humidity;BMP_temperature;BMP_pressure;BME280_temperature;BME280_humidity;BME280_pressure;Samples;Min_cycle;Max_cycle;Signal;HPM_P1;HPM_P2
2023/12/28 00:01:13;;;;;;;5.57;5.00;;;;;;;2.54;100.00;100346.19;5072939;28;20230;-76
2023/12/28 00:03:40;;;;;;;4.93;4.33;;;;;;;2.56;100.00;100352.22;5071965;28;20179;-77
2023/12/28 00:06:06;;;;;;;5.07;4.57;;;;;;;2.60;100.00;100355.69;5070519;28;20204;-78
2023/12/28 00:08:32;;;;;;;7.40;6.60;;;;;;;2.69;100.00;100358.47;5070911;28;20676;-76
2023/12/28 00:10:58;;;;;;;7.70;6.80;;;;;;;2.71;100.00;100359.38;5073938;28;20210;-77
2023/12/28 00:13:23;;;;;;;6.50;5.90;;;;;;;2.71;100.00;100361.94;5070437;28;20209;-77
2023/12/28 00:15:48;;;;;;;6.50;5.90;;;;;;;2.60;100.00;100353.16;5066804;28;20731;-77
2023/12/28 00:18:13;;;;;;;6.00;5.40;;;;;;;2.57;100.00;100355.63;5071888;28;20220;-77
2023/12/28 00:20:39;;;;;;;5.47;4.93;;;;;;;2.58;100.00;100359.91;5072021;28;20205;-76
2023/12/28 00:23:05;;;;;;;7.77;5.27;;;;;;;2.61;100.00;100369.31;5066844;28;20178;-76
2023/12/28 00:25:30;;;;;;;7.10;6.00;;;;;;;2.65;100.00;100371.13;5067341;28;20196;-77
2023/12/28 00:27:56;;;;;;;6.10;5.50;;;;;;;2.67;100.00;100372.03;5068554;28;20194;-78
2023/12/28 00:30:21;;;;;;;7.20;5.73;;;;;;;2.68;100.00;100387.41;5066173;28;20186;-77
2023/12/28 00:32:46;;;;;;;6.27;5.67;;;;;;;2.65;100.00;100384.75;5064754;28;20269;-77
2023/12/28 00:35:12;;;;;;;6.27;4.83;;;;;;;2.67;100.00;100392.50;5068458;28;20178;-77
2023/12/28 00:37:37;;;;;;;5.50;4.90;;;;;;;2.59;100.00;100388.03;5066380;28;20954;-77
2023/12/28 00:40:03;;;;;;;5.27;4.77;;;;;;;2.62;100.00;100389.81;5073015;28;20191;-77
2023/12/28 00:42:28;;;;;;;4.70;4.30;;;;;;;2.65;100.00;100394.13;5068892;28;20194;-77
2023/12/28 00:44:53;;;;;;;4.93;4.53;;;;;;;2.69;100.00;100401.06;5068535;28;20183;-76
2023/12/28 00:47:19;;;;;;;4.67;4.27;;;;;;;2.72;100.00;100396.03;5068000;28;20735;-77
2023/12/28 00:49:44;;;;;;;5.43;4.23;;;;;;;2.70;100.00;100401.09;5063142;28;20189;-77
2023/12/28 00:52:09;;;;;;;4.60;4.20;;;;;;;2.71;100.00;100404.53;5067358;28;20698;-77
2023/12/28 00:54:36;;;;;;;4.67;4.17;;;;;;;2.71;100.00;100404.53;5067665;28;20189;-77
2023/12/28 00:57:03;;;;;;;4.70;4.10;;;;;;;2.70;100.00;100413.88;5069831;28;20704;-77
2023/12/28 00:59:29;;;;;;;4.33;3.90;;;;;;;2.69;100.00;100404.47;5071491;28;20233;-76
2023/12/28 01:01:55;;;;;;;4.70;4.30;;;;;;;2.68;100.00;100409.56;5084742;28;20210;-77
2023/12/28 01:04:23;;;;;;;5.00;4.50;;;;;;;2.66;100.00;100406.94;5067651;28;20193;-77
2023/12/28 01:06:48;;;;;;;5.20;4.70;;;;;;;2.65;100.00;100402.66;5069805;28;20173;-77
2023/12/28 01:09:13;;;;;;;5.77;5.27;;;;;;;2.61;100.00;100399.97;5073398;28;20570;-77
2023/12/28 01:11:39;;;;;;;5.60;5.10;;;;;;;2.58;100.00;100388.00;5063090;28;20212;-77
2023/12/28 01:14:04;;;;;;;5.17;4.67;;;;;;;2.56;100.00;100402.44;5067852;28;20212;-77
2023/12/28 01:16:29;;;;;;;5.20;4.70;;;;;;;2.54;100.00;100404.06;5072180;28;20598;-76
2023/12/28 01:18:55;;;;;;;5.87;5.23;;;;;;;2.54;100.00;100409.19;5074884;28;20665;-77
2023/12/28 01:21:20;;;;;;;5.27;4.60;;;;;;;2.52;100.00;100409.16;5070627;28;20197;-76
2023/12/28 01:23:46;;;;;;;5.60;5.10;;;;;;;2.51;100.00;100409.97;5068711;28;20236;-77
2023/12/28 01:26:14;;;;;;;4.83;4.43;;;;;;;2.54;100.00;100394.75;5071354;28;20185;-76
2023/12/28 01:28:40;;;;;;;4.43;4.03;;;;;;;2.58;100.00;100405.88;5074638;28;20210;-77
2023/12/28 01:31:05;;;;;;;4.50;4.10;;;;;;;2.63;100.00;100408.56;5067680;28;20225;-77
2023/12/28 01:33:30;;;;;;;6.10;5.30;;;;;;;2.70;100.00;100415.56;5066074;28;20201;-76
2023/12/28 01:35:56;;;;;;;5.43;4.93;;;;;;;2.72;100.00;100419.88;5073730;28;20173;-77
2023/12/28 01:38:21;;;;;;;4.97;4.57;;;;;;;2.79;100.00;100420.91;5072418;28;21234;-77
2023/12/28 01:40:46;;;;;;;5.23;4.73;;;;;;;2.87;100.00;100426.19;5070189;28;20301;-77
2023/12/28 01:43:12;;;;;;;4.90;4.40;;;;;;;2.98;100.00;100423.91;5063957;28;20188;-77
2023/12/28 01:45:37;;;;;;;4.50;4.10;;;;;;;3.09;100.00;100416.50;5064874;28;20182;-78
2023/12/28 01:48:03;;;;;;;4.20;3.80;;;;;;;3.17;100.00;100426.09;5060620;28;20195;-76
2023/12/28 01:50:31;;;;;;;5.37;4.47;;;;;;;3.28;100.00;100426.31;5072609;28;20821;-76
2023/12/28 01:52:59;;;;;;;4.60;4.13;;;;;;;3.39;100.00;100426.56;5067001;28;20292;-77
2023/12/28 01:55:26;;;;;;;5.87;4.87;;;;;;;3.46;100.00;100425.00;5067700;28;20226;-77
2023/12/28 01:57:52;;;;;;;5.20;4.80;;;;;;;3.50;100.00;100429.38;5069822;28;20193;-77
2023/12/28 02:00:18;;;;;;;6.63;4.63;;;;;;;3.53;100.00;100432.00;5067372;28;20178;-77
2023/12/28 02:02:44;;;;;;;4.70;4.30;;;;;;;3.62;100.00;100429.63;5067277;28;20262;-76
2023/12/28 02:05:11;;;;;;;5.47;4.60;;;;;;;3.76;100.00;100431.63;5070305;28;20197;-77
2023/12/28 02:07:37;;;;;;;4.33;3.93;;;;;;;3.90;100.00;100435.34;5072478;28;20264;-76
2023/12/28 02:10:02;;;;;;;4.43;4.03;;;;;;;4.05;100.00;100421.13;5064920;28;20304;-77
2023/12/28 02:12:28;;;;;;;4.30;3.90;;;;;;;4.20;100.00;100435.94;5072596;28;20209;-78
2023/12/28 02:14:53;;;;;;;4.53;3.60;;;;;;;4.34;100.00;100431.94;5072377;28;20242;-77
2023/12/28 02:17:30;;;;;;;4.80;3.80;;;;;;;4.47;100.00;100415.06;5074881;28;20212;-77
2023/12/28 02:19:57;;;;;;;4.20;3.80;;;;;;;4.65;100.00;100426.50;5067469;28;20917;-77
2023/12/28 02:22:25;;;;;;;3.73;3.40;;;;;;;4.80;100.00;100415.66;5070196;28;20216;-78
2023/12/28 02:25:04;;;;;;;3.67;3.30;;;;;;;4.95;100.00;100417.59;5072237;28;20185;-76
2023/12/28 02:27:30;;;;;;;3.40;3.10;;;;;;;5.12;100.00;100417.88;5077097;28;20271;-77
2023/12/28 02:29:57;;;;;;;3.50;3.00;;;;;;;5.29;100.00;100419.00;5074588;28;20207;-77
2023/12/28 02:32:35;;;;;;;3.90;2.90;;;;;;;5.47;100.00;100417.50;5073942;28;20580;-77
2023/12/28 02:35:25;;;;;;;3.07;2.50;;;;;;;5.64;100.00;100417.75;5069920;28;20188;-76
2023/12/28 02:37:57;;;;;;;2.93;2.60;;;;;;;5.85;100.00;100414.59;5068995;28;20272;-78
2023/12/28 02:40:24;;;;;;;2.70;2.50;;;;;;;6.02;100.00;100407.13;5070462;28;20195;-76
2023/12/28 02:42:49;;;;;;;2.87;2.50;;;;;;;6.19;100.00;100402.19;5074664;28;20233;-78
2023/12/28 02:45:15;;;;;;;2.43;2.20;;;;;;;6.34;100.00;100392.91;5073352;28;20184;-77
2023/12/28 02:47:40;;;;;;;2.40;2.20;;;;;;;6.53;100.00;100401.66;5076247;28;20247;-77
2023/12/28 02:50:06;;;;;;;3.40;2.37;;;;;;;6.69;100.00;100403.53;5071649;28;20190;-76
2023/12/28 02:52:31;;;;;;;2.20;2.00;;;;;;;6.90;100.00;100404.53;5069639;28;20210;-77
2023/12/28 02:54:57;;;;;;;2.33;2.13;;;;;;;7.03;100.00;100402.09;5069287;28;20246;-77
2023/12/28 02:57:22;;;;;;;2.50;2.30;;;;;;;7.19;99.45;100403.88;5066735;28;20701;-77
2023/12/28 02:59:47;;;;;;;2.03;1.80;;;;;;;7.35;98.37;100404.88;5073521;28;20695;-77
2023/12/28 03:02:13;;;;;;;1.93;1.83;;;;;;;7.48;96.88;100400.66;5071681;28;20216;-77
2023/12/28 03:04:38;;;;;;;2.10;1.90;;;;;;;7.59;96.93;100399.00;5075409;28;20193;-78
2023/12/28 03:07:05;;;;;;;2.57;2.20;;;;;;;7.74;95.22;100405.06;5071220;28;20188;-79
2023/12/28 03:09:30;;;;;;;2.60;1.87;;;;;;;7.84;95.05;100408.56;5075302;28;20199;-77
2023/12/28 03:11:55;;;;;;;1.80;1.70;;;;;;;7.94;93.11;100407.72;5073367;28;20206;-77
2023/12/28 03:14:23;;;;;;;2.20;1.87;;;;;;;8.04;93.06;100404.31;5073008;28;21014;-77
2023/12/28 03:16:48;;;;;;;2.13;1.50;;;;;;;8.12;92.42;100399.19;5073021;28;20959;-77
2023/12/28 03:19:14;;;;;;;3.00;1.90;;;;;;;8.18;90.82;100386.31;5073082;28;20192;-77
2023/12/28 03:21:40;;;;;;;3.03;1.67;;;;;;;8.29;89.70;100400.94;5072947;28;20297;-76
2023/12/28 03:24:05;;;;;;;2.27;2.07;;;;;;;8.38;90.63;100398.41;5069146;28;20218;-75
2023/12/28 03:26:31;;;;;;;4.07;2.00;;;;;;;8.45;90.24;100400.13;5072728;28;20206;-78
2023/12/28 03:28:56;;;;;;;2.07;1.90;;;;;;;8.50;90.01;100395.88;5074782;28;20284;-77
2023/12/28 03:31:21;;;;;;;1.67;1.57;;;;;;;8.58;90.00;100395.00;5071039;28;20211;-77
2023/12/28 03:33:46;;;;;;;1.80;1.50;;;;;;;8.65;87.58;100395.00;5070416;28;20201;-77
2023/12/28 03:36:19;;;;;;;2.20;2.00;;;;;;;8.72;87.77;100393.28;5074371;28;20181;-77
2023/12/28 03:38:44;;;;;;;1.50;1.37;;;;;;;8.80;88.30;100401.91;5076505;28;20214;-77
2023/12/28 03:41:18;;;;;;;2.37;1.80;;;;;;;8.85;88.89;100407.06;5073515;28;20606;-77
2023/12/28 03:43:43;;;;;;;1.70;1.60;;;;;;;8.91;88.31;100408.78;5072910;28;20188;-77
2023/12/28 03:46:09;;;;;;;2.07;1.67;;;;;;;8.95;86.38;100405.34;5073471;28;20190;-77
2023/12/28 03:48:36;;;;;;;2.33;1.73;;;;;;;9.03;85.12;100403.63;5072429;28;20193;-77
2023/12/28 03:51:01;;;;;;;1.50;1.40;;;;;;;9.11;84.97;100404.50;5074021;28;20209;-77
2023/12/28 03:53:26;;;;;;;2.00;1.80;;;;;;;9.17;84.77;100405.31;5068692;28;20220;-77
2023/12/28 03:55:52;;;;;;;1.60;1.50;;;;;;;9.20;85.49;100408.78;5074083;28;20204;-78
2023/12/28 03:58:17;;;;;;;1.73;1.63;;;;;;;9.24;84.40;100402.72;5074563;28;21105;-77
2023/12/28 04:00:42;;;;;;;1.73;1.63;;;;;;;9.32;84.57;100409.63;5073957;28;20292;-78
2023/12/28 04:03:07;;;;;;;1.53;1.40;;;;;;;9.33;85.36;100407.03;5067102;28;20184;-78
2023/12/28 04:05:33;;;;;;;1.60;1.37;;;;;;;9.35;85.97;100412.19;5076856;28;20305;-76
2023/12/28 04:07:58;;;;;;;1.47;1.20;;;;;;;9.40;86.25;100418.19;5069186;28;20185;-77
2023/12/28 04:10:31;;;;;;;1.63;1.53;;;;;;;9.43;87.75;100421.66;5063417;28;20954;-77
2023/12/28 04:12:58;;;;;;;1.77;1.60;;;;;;;9.44;88.78;100431.13;5074574;28;20206;-76
2023/12/28 04:15:24;;;;;;;1.60;1.50;;;;;;;9.45;90.23;100426.81;5061910;28;20201;-76
2023/12/28 04:17:49;;;;;;;1.60;1.50;;;;;;;9.42;91.84;100432.84;5071307;28;20182;-76
2023/12/28 04:20:15;;;;;;;1.60;1.40;;;;;;;9.43;94.04;100426.81;5070641;28;20181;-76
2023/12/28 04:22:43;;;;;;;2.03;1.60;;;;;;;9.39;94.96;100422.53;5074189;28;20206;-76
2023/12/28 04:25:08;;;;;;;1.77;1.60;;;;;;;9.36;95.49;100432.00;5073066;28;20796;-76
2023/12/28 04:27:33;;;;;;;1.90;1.57;;;;;;;9.34;96.56;100437.16;5072537;28;20189;-76
2023/12/28 04:29:59;;;;;;;1.73;1.50;;;;;;;9.30;97.22;100432.88;5072379;28;20235;-76
2023/12/28 04:32:24;;;;;;;1.57;1.33;;;;;;;9.27;97.86;100432.88;5076454;28;20217;-76
2023/12/28 04:34:49;;;;;;;1.90;1.60;;;;;;;9.25;97.92;100438.03;5076612;28;20666;-76
2023/12/28 04:37:15;;;;;;;1.70;1.60;;;;;;;9.23;99.08;100428.56;5074297;28;20653;-75
2023/12/28 04:39:40;;;;;;;1.93;1.73;;;;;;;9.20;99.53;100432.03;5077033;28;20184;-76
2023/12/28 04:42:05;;;;;;;1.50;1.40;;;;;;;9.16;100.00;100432.88;5074540;28;20266;-75
2023/12/28 04:44:31;;;;;;;1.90;1.50;;;;;;;9.16;100.00;100440.63;5077105;28;20569;-76
2023/12/28 04:46:56;;;;;;;1.70;1.60;;;;;;;9.14;100.00;100440.63;5072764;28;20231;-76
2023/12/28 04:49:21;;;;;;;1.80;1.70;;;;;;;9.12;100.00;100436.31;5076807;28;20670;-77
2023/12/28 04:51:47;;;;;;;1.73;1.37;;;;;;;9.09;100.00;100450.09;5070396;28;21098;-75
2023/12/28 04:54:12;;;;;;;1.37;1.20;;;;;;;9.06;100.00;100457.84;5067746;28;20203;-76
2023/12/28 04:56:37;;;;;;;1.70;1.47;;;;;;;9.05;100.00;100452.69;5063618;28;20197;-76
2023/12/28 04:59:03;;;;;;;1.70;1.60;;;;;;;9.00;100.00;100440.63;5070886;28;20185;-76
2023/12/28 05:01:31;;;;;;;1.87;1.70;;;;;;;8.98;100.00;100444.09;5069971;28;20217;-76
2023/12/28 05:03:57;;;;;;;1.70;1.57;;;;;;;8.93;100.00;100445.78;5064714;28;20194;-77
2023/12/28 05:06:22;;;;;;;1.60;1.43;;;;;;;8.92;100.00;100462.13;5075141;28;20271;-77
2023/12/28 05:08:47;;;;;;;2.07;1.80;;;;;;;8.89;100.00;100459.53;5070887;28;20754;-77
2023/12/28 05:11:13;;;;;;;2.20;1.67;;;;;;;8.87;100.00;100456.09;5063965;28;20262;-76
2023/12/28 05:13:38;;;;;;;1.73;1.50;;;;;;;8.85;100.00;100448.38;5066957;28;20972;-77
2023/12/28 05:16:05;;;;;;;2.33;2.03;;;;;;;8.80;100.00;100444.91;5070066;28;20217;-76
2023/12/28 05:18:31;;;;;;;2.00;1.80;;;;;;;8.79;100.00;100441.47;5072464;28;20185;-76
2023/12/28 05:20:56;;;;;;;1.80;1.70;;;;;;;8.75;100.00;100438.91;5070079;28;20317;-77
2023/12/28 05:23:21;;;;;;;1.50;1.40;;;;;;;8.73;100.00;100445.78;5074306;28;20186;-77
2023/12/28 05:25:48;;;;;;;1.93;1.50;;;;;;;8.73;100.00;100441.47;5070242;28;20189;-76
2023/12/28 05:28:13;;;;;;;1.67;1.50;;;;;;;8.72;100.00;100450.06;5067387;28;20197;-76
2023/12/28 05:30:38;;;;;;;2.30;1.60;;;;;;;8.74;100.00;100453.50;5070750;28;20200;-77
2023/12/28 05:33:04;;;;;;;2.07;1.87;;;;;;;8.74;100.00;100463.84;5069853;28;20213;-76
2023/12/28 05:35:29;;;;;;;2.10;1.70;;;;;;;8.76;100.00;100459.53;5068958;28;20276;-76
2023/12/28 05:37:55;;;;;;;1.60;1.50;;;;;;;8.76;100.00;100464.69;5071189;28;20215;-76
2023/12/28 05:40:20;;;;;;;2.17;1.63;;;;;;;8.75;100.00;100459.53;5069490;28;20186;-76
2023/12/28 05:42:45;;;;;;;1.77;1.67;;;;;;;8.73;100.00;100463.84;5065907;28;20206;-76
2023/12/28 05:45:11;;;;;;;1.80;1.57;;;;;;;8.73;100.00;100459.53;5065934;28;20190;-76
2023/12/28 05:47:36;;;;;;;2.07;1.83;;;;;;;8.73;100.00;100462.09;5069623;28;20185;-76
2023/12/28 05:50:03;;;;;;;1.67;1.57;;;;;;;8.72;100.00;100457.81;5070775;28;20948;-76
2023/12/28 05:52:28;;;;;;;1.70;1.50;;;;;;;8.73;100.00;100459.53;5068690;28;20203;-75
2023/12/28 05:54:56;;;;;;;1.87;1.53;;;;;;;8.75;100.00;100460.41;5067014;28;20802;-75
2023/12/28 05:57:21;;;;;;;2.20;1.70;;;;;;;8.76;100.00;100451.78;5061795;28;21155;-76
2023/12/28 05:59:47;;;;;;;4.83;1.97;;;;;;;8.77;100.00;100450.09;5068478;28;20212;-76
2023/12/28 06:02:12;;;;;;;3.00;2.10;;;;;;;8.77;100.00;100458.69;5065051;28;20204;-76
2023/12/28 06:04:37;;;;;;;3.37;2.20;;;;;;;8.78;100.00;100459.53;5071378;28;20185;-76
2023/12/28 06:07:05;;;;;;;3.10;2.03;;;;;;;8.78;100.00;100464.69;5068400;28;20191;-76
2023/12/28 06:09:31;;;;;;;4.10;2.27;;;;;;;8.79;100.00;100464.72;5065238;28;20196;-76
2023/12/28 06:11:56;;;;;;;2.77;2.00;;;;;;;8.81;100.00;100463.00;5066983;28;20217;-77
2023/12/28 06:14:22;;;;;;;2.60;1.90;;;;;;;8.83;100.00;100465.56;5067227;28;20594;-76
2023/12/28 06:16:47;;;;;;;2.90;2.10;;;;;;;8.85;100.00;100472.44;5069093;28;20185;-76
2023/12/28 06:19:12;;;;;;;2.20;2.00;;;;;;;8.88;100.00;100481.03;5068053;28;20184;-77
2023/12/28 06:21:38;;;;;;;2.87;2.17;;;;;;;8.90;100.00;100487.97;5073599;28;20226;-77
2023/12/28 06:24:03;;;;;;;1.80;1.53;;;;;;;8.92;100.00;100485.38;5068394;28;20218;-78
2023/12/28 06:26:29;;;;;;;2.10;1.87;;;;;;;8.95;100.00;100490.53;5063667;28;20178;-77
2023/12/28 06:28:54;;;;;;;1.73;1.63;;;;;;;8.98;100.00;100496.56;5069039;28;20185;-77
2023/12/28 06:31:20;;;;;;;1.67;1.50;;;;;;;9.02;100.00;100491.41;5063372;28;20587;-77
2023/12/28 06:33:45;;;;;;;1.60;1.50;;;;;;;9.04;100.00;100498.28;5065075;28;20241;-77
2023/12/28 06:36:12;;;;;;;2.73;2.00;;;;;;;9.07;100.00;100500.03;5059020;28;20197;-76
2023/12/28 06:38:37;;;;;;;1.53;1.43;;;;;;;9.09;100.00;100504.31;5066824;28;20186;-77
2023/12/28 06:41:10;;;;;;;1.77;1.43;;;;;;;9.11;100.00;100501.72;5071320;28;20663;-77
2023/12/28 06:43:35;;;;;;;1.57;1.47;;;;;;;9.12;100.00;100498.28;5064579;28;20191;-76
2023/12/28 06:46:00;;;;;;;3.33;1.70;;;;;;;9.14;100.00;100502.59;5069380;28;20247;-77
2023/12/28 06:48:26;;;;;;;1.70;1.40;;;;;;;9.17;100.00;100503.44;5069357;28;20202;-77
2023/12/28 06:50:51;;;;;;;1.70;1.60;;;;;;;9.19;100.00;100507.75;5067131;28;20197;-77
2023/12/28 06:53:17;;;;;;;2.57;1.67;;;;;;;9.20;100.00;100503.44;5063443;28;20211;-76
2023/12/28 06:55:42;;;;;;;1.80;1.30;;;;;;;9.23;100.00;100509.47;5068352;28;20186;-77
2023/12/28 06:58:08;;;;;;;1.57;1.47;;;;;;;9.23;100.00;100506.03;5063014;28;20188;-77
2023/12/28 07:00:33;;;;;;;1.73;1.63;;;;;;;9.27;100.00;100513.78;5056768;28;20202;-76
2023/12/28 07:02:58;;;;;;;1.40;1.30;;;;;;;9.28;100.00;100517.25;5063095;28;20181;-76
2023/12/28 07:05:24;;;;;;;1.80;1.60;;;;;;;9.29;100.00;100508.63;5065983;28;20197;-77
2023/12/28 07:07:49;;;;;;;2.07;1.63;;;;;;;9.29;100.00;100512.06;5075075;28;20661;-77
2023/12/28 07:10:15;;;;;;;1.60;1.50;;;;;;;9.30;100.00;100521.53;5069180;28;20234;-77
2023/12/28 07:12:40;;;;;;;2.70;1.50;;;;;;;9.30;100.00;100523.28;5064163;28;20208;-77
2023/12/28 07:15:06;;;;;;;1.70;1.60;;;;;;;9.30;100.00;100526.69;5070480;28;20572;-77
2023/12/28 07:17:31;;;;;;;2.93;1.53;;;;;;;9.30;100.00;100529.28;5061448;28;20237;-77
2023/12/28 07:19:56;;;;;;;1.50;1.40;;;;;;;9.31;100.00;100522.38;5069019;28;20185;-75
2023/12/28 07:22:22;;;;;;;1.80;1.70;;;;;;;9.31;100.00;100517.22;5071923;28;20295;-76
2023/12/28 07:24:48;;;;;;;2.47;1.73;;;;;;;9.30;100.00;100526.69;5072988;28;20277;-77
2023/12/28 07:27:13;;;;;;;1.77;1.60;;;;;;;9.29;100.00;100527.56;5075924;28;20323;-76
2023/12/28 07:29:38;;;;;;;2.00;1.80;;;;;;;9.29;100.00;100532.72;5075709;28;20653;-77
2023/12/28 07:32:04;;;;;;;1.70;1.50;;;;;;;9.27;100.00;100539.59;5078719;28;20206;-77
2023/12/28 07:34:29;;;;;;;2.00;1.80;;;;;;;9.24;100.00;100555.09;5078610;28;20248;-77
2023/12/28 07:36:54;;;;;;;3.43;2.83;;;;;;;9.20;100.00;100557.69;5075528;28;20181;-77
2023/12/28 07:39:20;;;;;;;5.10;2.90;;;;;;;9.11;100.00;100553.34;5076032;28;20543;-77
2023/12/28 07:41:45;;;;;;;7.20;3.43;;;;;;;9.05;100.00;100561.97;5079157;28;20772;-76
2023/12/28 07:44:10;;;;;;;4.50;3.30;;;;;;;9.01;100.00;100555.06;5071740;28;20621;-75
2023/12/28 07:46:36;;;;;;;4.13;3.27;;;;;;;8.98;100.00;100561.09;5073375;28;20181;-76
2023/12/28 07:49:01;;;;;;;3.57;2.50;;;;;;;8.95;100.00;100567.97;5076998;28;20238;-77
2023/12/28 07:51:26;;;;;;;2.50;2.30;;;;;;;8.94;100.00;100561.09;5070187;28;20214;-77
2023/12/28 07:53:52;;;;;;;3.47;2.77;;;;;;;8.91;100.00;100571.41;5065787;28;20789;-76
2023/12/28 07:56:17;;;;;;;2.63;2.43;;;;;;;8.90;100.00;100574.84;5066620;28;20185;-77
2023/12/28 07:58:42;;;;;;;3.30;2.50;;;;;;;8.87;100.00;100564.50;5072069;28;20188;-77
2023/12/28 08:01:11;;;;;;;2.57;2.23;;;;;;;8.82;100.00;100567.06;5070895;28;20237;-76
2023/12/28 08:03:36;;;;;;;3.27;2.93;;;;;;;8.81;100.00;100555.91;5069336;28;20263;-77
2023/12/28 08:06:02;;;;;;;2.87;2.57;;;;;;;8.80;100.00;100551.59;5064028;28;20212;-77
2023/12/28 08:08:27;;;;;;;2.83;2.10;;;;;;;8.80;100.00;100559.34;5056830;28;20182;-76
2023/12/28 08:10:53;;;;;;;3.63;2.17;;;;;;;8.81;100.00;100566.22;5050738;28;20202;-75
2023/12/28 08:13:18;;;;;;;2.10;1.90;;;;;;;8.81;100.00;100555.91;5050421;28;20680;-76
2023/12/28 08:15:45;;;;;;;3.40;2.50;;;;;;;8.81;100.00;100548.16;5056221;28;20179;-76
2023/12/28 08:18:10;;;;;;;2.53;2.30;;;;;;;8.83;100.00;100554.19;5052623;28;20209;-77
2023/12/28 08:20:35;;;;;;;2.77;2.07;;;;;;;8.87;100.00;100556.75;5048352;28;20733;-76
2023/12/28 08:23:00;;;;;;;3.33;2.27;;;;;;;8.88;100.00;100559.34;5056946;28;20185;-76
2023/12/28 08:25:26;;;;;;;2.60;2.40;;;;;;;8.91;100.00;100555.91;5053720;28;20186;-76
2023/12/28 08:27:51;;;;;;;2.33;2.03;;;;;;;8.93;100.00;100552.47;5052978;28;20558;-76
2023/12/28 08:30:17;;;;;;;2.37;2.17;;;;;;;8.97;100.00;100550.78;5050023;28;21120;-76
2023/12/28 08:32:42;;;;;;;2.10;1.90;;;;;;;9.01;100.00;100537.00;5051179;28;20267;-77
2023/12/28 08:35:07;;;;;;;2.20;2.00;;;;;;;9.05;100.00;100545.63;5053581;28;20568;-75
2023/12/28 08:37:33;;;;;;;2.57;2.20;;;;;;;9.09;100.00;100547.31;5050931;28;20245;-76
2023/12/28 08:39:58;;;;;;;2.30;2.10;;;;;;;9.11;100.00;100558.53;5048577;28;20185;-76
2023/12/28 08:42:24;;;;;;;2.70;2.30;;;;;;;9.13;100.00;100564.56;5050210;28;20202;-76
2023/12/28 08:44:50;;;;;;;3.43;2.33;;;;;;;9.14;100.00;100555.94;5044557;28;20270;-77
2023/12/28 08:47:15;;;;;;;4.70;2.40;;;;;;;9.15;100.00;100557.69;5046868;28;20265;-77
2023/12/28 08:49:41;;;;;;;2.97;2.53;;;;;;;9.16;100.00;100546.50;5050585;28;20610;-76
2023/12/28 08:52:06;;;;;;;2.80;2.37;;;;;;;9.15;100.00;100550.78;5058539;28;20252;-76
2023/12/28 08:54:32;;;;;;;2.53;2.00;;;;;;;9.16;100.00;100551.66;5055034;28;20201;-76
2023/12/28 08:56:57;;;;;;;2.60;2.23;;;;;;;9.14;100.00;100550.78;5046339;28;20232;-77
2023/12/28 08:59:22;;;;;;;3.37;2.20;;;;;;;9.13;100.00;100574.88;5052557;28;20178;-75
2023/12/28 09:01:47;;;;;;;2.20;1.77;;;;;;;9.09;100.00;100567.97;5047115;28;20199;-76
2023/12/28 09:04:14;;;;;;;3.10;2.57;;;;;;;9.05;100.00;100582.63;5051451;28;20202;-76
2023/12/28 09:06:39;;;;;;;2.43;2.23;;;;;;;9.04;100.00;100578.31;5045552;28;20174;-76
2023/12/28 09:09:05;;;;;;;3.37;3.07;;;;;;;9.06;100.00;100578.31;5041800;28;20186;-76
2023/12/28 09:11:30;;;;;;;3.87;3.27;;;;;;;9.08;100.00;100584.31;5047726;28;20233;-76
2023/12/28 09:13:56;;;;;;;3.90;3.40;;;;;;;9.08;100.00;100577.47;5047878;28;20230;-76
2023/12/28 09:16:21;;;;;;;3.23;2.93;;;;;;;9.11;100.00;100592.09;5044179;28;20194;-76
2023/12/28 09:18:46;;;;;;;3.20;2.90;;;;;;;9.13;100.00;100592.94;5042073;28;20192;-76
2023/12/28 09:21:12;;;;;;;3.73;3.07;;;;;;;9.15;100.00;100592.09;5051502;28;20194;-77
2023/12/28 09:23:38;;;;;;;2.80;2.60;;;;;;;9.17;100.00;100605.03;5047563;28;20198;-77
2023/12/28 09:26:05;;;;;;;3.57;3.03;;;;;;;9.17;100.00;100594.69;5043868;28;20894;-76
2023/12/28 09:28:34;;;;;;;3.03;2.73;;;;;;;9.17;100.00;100602.44;5045651;28;20194;-76
2023/12/28 09:31:00;;;;;;;3.30;2.93;;;;;;;9.18;100.00;100617.06;5048602;28;20216;-77
2023/12/28 09:33:25;;;;;;;4.10;3.50;;;;;;;9.21;100.00;100601.59;5044507;28;20874;-77
2023/12/28 09:35:51;;;;;;;3.77;3.47;;;;;;;9.26;100.00;100599.00;5044027;28;20187;-76
2023/12/28 09:38:16;;;;;;;3.70;3.40;;;;;;;9.29;100.00;100606.78;5047863;28;20183;-76
2023/12/28 09:40:42;;;;;;;3.50;3.20;;;;;;;9.29;100.00;100607.63;5050762;28;20183;-76
2023/12/28 09:43:27;;;;;;;5.03;3.60;;;;;;;9.28;100.00;100595.56;5046671;28;20848;-76
2023/12/28 09:45:54;;;;;;;4.13;3.27;;;;;;;9.23;100.00;100605.00;5047314;28;20272;-77
2023/12/28 09:48:21;;;;;;;3.83;3.53;;;;;;;9.21;100.00;100604.19;5051828;28;20196;-76
2023/12/28 09:50:57;;;;;;;4.20;3.23;;;;;;;9.18;100.00;100592.97;5045230;28;20183;-77
2023/12/28 09:53:23;;;;;;;5.20;3.40;;;;;;;9.15;100.00;100589.50;5048447;28;20211;-77
2023/12/28 09:55:51;;;;;;;3.80;3.10;;;;;;;9.18;100.00;100586.09;5050839;28;20251;-77
2023/12/28 09:58:18;;;;;;;3.90;3.13;;;;;;;9.22;100.00;100586.94;5048667;28;20182;-76
2023/12/28 10:00:44;;;;;;;4.10;2.80;;;;;;;9.27;100.00;100582.66;5046780;28;20191;-76
2023/12/28 10:03:12;;;;;;;3.33;3.03;;;;;;;9.32;100.00;100580.06;5047297;28;20260;-76
2023/12/28 10:05:37;;;;;;;3.70;2.90;;;;;;;9.35;100.00;100578.34;5050597;28;20194;-76
2023/12/28 10:08:03;;;;;;;3.17;2.87;;;;;;;9.42;100.00;100576.63;5050690;28;20671;-76
2023/12/28 10:10:29;;;;;;;3.40;3.10;;;;;;;9.48;100.00;100578.34;5044443;28;20197;-76
2023/12/28 10:12:55;;;;;;;3.50;3.00;;;;;;;9.54;100.00;100570.63;5051538;28;20210;-76
2023/12/28 10:15:20;;;;;;;4.00;3.07;;;;;;;9.59;100.00;100567.16;5042456;28;20195;-77
2023/12/28 10:17:47;;;;;;;3.10;2.80;;;;;;;9.65;100.00;100565.44;5051300;28;20188;-77
2023/12/28 10:20:12;;;;;;;3.30;2.90;;;;;;;9.71;100.00;100573.19;5046031;28;20663;-76
2023/12/28 10:22:37;;;;;;;4.23;3.20;;;;;;;9.73;100.00;100562.00;5045396;28;20205;-77
2023/12/28 10:25:04;;;;;;;3.50;2.97;;;;;;;9.75;100.00;100559.41;5046358;28;20187;-76
2023/12/28 10:27:29;;;;;;;4.47;2.60;;;;;;;9.77;100.00;100568.00;5046174;28;20191;-76
2023/12/28 10:29:55;;;;;;;3.33;2.77;;;;;;;9.76;100.00;100566.28;5050513;28;20786;-76
2023/12/28 10:32:22;;;;;;;3.63;3.13;;;;;;;9.75;100.00;100557.69;5046057;28;20703;-76
2023/12/28 10:34:48;;;;;;;3.17;2.87;;;;;;;9.73;100.00;100559.41;5048268;28;20187;-77
2023/12/28 10:37:17;;;;;;;3.33;2.90;;;;;;;9.71;100.00;100561.13;5047028;28;20312;-77
2023/12/28 10:39:46;;;;;;;3.20;2.90;;;;;;;9.69;100.00;100564.56;5055777;28;20195;-77
2023/12/28 10:42:14;;;;;;;3.03;2.73;;;;;;;9.68;100.00;100558.53;5048298;28;20249;-76
2023/12/28 10:44:43;;;;;;;2.87;2.50;;;;;;;9.66;100.00;100562.84;5052032;28;20680;-77
2023/12/28 10:47:18;;;;;;;3.37;2.90;;;;;;;9.67;100.00;100564.56;5044665;28;20260;-76
2023/12/28 10:49:48;;;;;;;3.03;2.67;;;;;;;9.63;100.00;100562.00;5056127;28;20195;-76
2023/12/28 10:52:16;;;;;;;3.30;2.97;;;;;;;9.63;100.00;100560.25;5051182;28;20225;-76
2023/12/28 10:54:54;;;;;;;2.80;2.30;;;;;;;9.62;100.00;100548.19;5048644;28;20241;-76
2023/12/28 10:57:27;;;;;;;2.60;2.40;;;;;;;9.62;100.00;100550.78;5053618;28;20232;-76
2023/12/28 11:00:00;;;;;;;2.80;2.40;;;;;;;9.65;100.00;100553.38;5060019;28;20717;-77
2023/12/28 11:02:32;;;;;;;2.20;2.00;;;;;;;9.69;100.00;100557.69;5050073;28;20211;-77
2023/12/28 11:05:00;;;;;;;2.53;2.33;;;;;;;9.73;100.00;100543.91;5058772;28;20194;-76
2023/12/28 11:07:32;;;;;;;2.90;2.33;;;;;;;9.76;100.00;100543.88;5057338;28;20190;-77
2023/12/28 11:10:00;;;;;;;2.30;2.10;;;;;;;9.79;100.00;100536.97;5054611;28;20247;-77
2023/12/28 11:12:27;;;;;;;2.33;1.83;;;;;;;9.81;100.00;100543.00;5062394;28;20210;-77
2023/12/28 11:14:54;;;;;;;2.27;2.07;;;;;;;9.81;100.00;100536.13;5051426;28;20186;-77
2023/12/28 11:17:20;;;;;;;1.90;1.70;;;;;;;9.83;100.00;100533.53;5051053;28;20192;-77
2023/12/28 11:19:47;;;;;;;2.27;2.03;;;;;;;9.84;100.00;100530.09;5048775;28;20785;-76
2023/12/28 11:22:13;;;;;;;1.90;1.80;;;;;;;9.86;100.00;100528.38;5057212;28;20205;-76